Terminal Aerodrome Forecast
Issued by NWS Brownsville, TX

Home | Current Version | Previous Version | Text Only | Print | Product List | Glossary On
Versions: 1 2 3 4 5 6 7 8 9 10 11 12 13 14 15 16 17 18 19 20
000
FTUS44 KBRO 182300
TAFBRO
TAF
KBRO 182320Z 1900/1924 14012G18KT P6SM FEW035 SCT250
     FM190300 15005KT P6SM FEW025 SCT250
     FM191500 14008KT P6SM VCSH BKN030
     FM191700 14010G15KT P6SM SCT040=

USA.gov is the U.S. government's official web portal to all federal, state and local government web resources and services.